createdAt,value
2019-01-26T00:02:13.253Z,6.17
2019-01-26T00:04:46.674Z,6.65
2019-01-26T00:07:20.362Z,8.85
2019-01-26T00:09:53.768Z,7.80
2019-01-26T00:12:26.945Z,8.08
2019-01-26T00:15:00.494Z,8.30
2019-01-26T00:17:38.790Z,11.95
2019-01-26T00:20:12.388Z,8.50
2019-01-26T00:22:46.873Z,26.52
2019-01-26T00:25:20.051Z,8.73
2019-01-26T00:27:54.472Z,8.75
2019-01-26T00:30:28.116Z,8.53
2019-01-26T00:33:01.336Z,6.83
2019-01-26T00:38:08.668Z,7.55
2019-01-26T00:40:42.944Z,7.80
2019-01-26T00:43:16.391Z,6.85
2019-01-26T00:45:49.647Z,7.72
2019-01-26T00:48:22.771Z,6.75
2019-01-26T00:50:56.878Z,8.25
2019-01-26T00:53:30.199Z,8.65
2019-01-26T00:58:36.070Z,8.20
2019-01-26T01:01:09.515Z,7.40
2019-01-26T01:03:42.903Z,7.30
2019-01-26T01:06:17.339Z,7.90
2019-01-26T01:08:51.002Z,9.38
2019-01-26T01:11:24.445Z,8.53
2019-01-26T01:13:58.018Z,8.30
2019-01-26T01:16:44.149Z,8.23
2019-01-26T01:19:29.882Z,10.30
2019-01-26T01:22:15.474Z,9.40
2019-01-26T01:24:48.886Z,11.35
2019-01-26T01:29:55.014Z,11.70
2019-01-26T01:32:28.401Z,10.68
2019-01-26T01:35:01.642Z,13.85
2019-01-26T01:37:35.586Z,16.97
2019-01-26T01:40:09.800Z,10.55
2019-01-26T01:42:43.817Z,10.63
2019-01-26T01:45:18.709Z,10.63
2019-01-26T01:47:52.313Z,9.98
2019-01-26T01:50:25.839Z,10.08
2019-01-26T01:52:59.239Z,11.05
2019-01-26T01:55:33.212Z,10.55
2019-01-26T01:58:07.378Z,10.78
2019-01-26T02:00:40.201Z,10.63
2019-01-26T02:03:13.385Z,9.83
2019-01-26T02:05:46.773Z,10.08
2019-01-26T02:08:20.102Z,10.93
2019-01-26T02:10:53.638Z,9.23
2019-01-26T02:13:27.487Z,9.95
2019-01-26T02:16:01.518Z,11.30
2019-01-26T02:18:47.429Z,8.78
2019-01-26T02:21:32.215Z,10.58
2019-01-26T02:24:20.527Z,10.95
2019-01-26T02:27:06.225Z,8.83
2019-01-26T02:29:47.556Z,11.25
2019-01-26T02:32:21.152Z,11.60
2019-01-26T02:34:54.585Z,10.38
2019-01-26T02:37:28.586Z,11.55
2019-01-26T02:40:02.156Z,11.38
2019-01-26T02:42:36.967Z,11.93
2019-01-26T02:45:13.056Z,12.53
2019-01-26T02:47:48.376Z,11.55
2019-01-26T02:50:22.509Z,12.95
2019-01-26T02:52:56.017Z,12.25
2019-01-26T02:58:02.315Z,11.68
2019-01-26T03:00:35.918Z,12.80
2019-01-26T03:03:13.233Z,13.20
2019-01-26T03:05:47.011Z,13.00
2019-01-26T03:08:21.206Z,13.15
2019-01-26T03:10:54.292Z,13.90
2019-01-26T03:13:27.028Z,14.23
2019-01-26T03:16:00.370Z,14.10
2019-01-26T03:18:46.043Z,15.25
2019-01-26T03:21:29.352Z,22.50
2019-01-26T03:24:03.126Z,16.00
2019-01-26T03:26:40.594Z,15.75
2019-01-26T03:29:14.834Z,17.20
2019-01-26T03:31:49.187Z,16.57
2019-01-26T03:34:22.820Z,14.78
2019-01-26T03:36:55.948Z,16.50
2019-01-26T03:39:29.206Z,17.55
2019-01-26T03:42:02.240Z,16.73
2019-01-26T03:47:13.662Z,15.03
2019-01-26T03:49:42.844Z,20.97
2019-01-26T03:52:16.514Z,16.20
2019-01-26T03:54:49.810Z,14.07
2019-01-26T03:57:23.068Z,15.80
2019-01-26T03:59:57.038Z,17.40
2019-01-26T04:02:30.264Z,17.48
2019-01-26T04:05:04.275Z,17.42
2019-01-26T04:07:38.112Z,18.45
2019-01-26T04:10:11.915Z,18.35
2019-01-26T04:12:45.242Z,19.25
2019-01-26T04:15:19.250Z,21.60
2019-01-26T04:18:03.470Z,21.00
2019-01-26T04:20:46.019Z,21.62
2019-01-26T04:23:19.290Z,21.62
2019-01-26T04:25:52.547Z,22.75
2019-01-26T04:28:25.696Z,20.60
2019-01-26T04:30:59.380Z,20.40
2019-01-26T04:33:31.914Z,18.07
2019-01-26T04:36:06.473Z,23.22
2019-01-26T04:38:39.637Z,22.85
2019-01-26T04:41:13.873Z,19.67
2019-01-26T04:43:47.774Z,19.87
2019-01-26T04:46:21.337Z,19.57
2019-01-26T04:48:55.153Z,21.75
2019-01-26T04:51:29.003Z,22.65
2019-01-26T04:54:02.529Z,24.07
2019-01-26T04:56:35.859Z,23.98
2019-01-26T04:59:09.351Z,25.02
2019-01-26T05:01:43.015Z,23.90
2019-01-26T05:04:16.275Z,21.70
2019-01-26T05:06:49.324Z,23.12
2019-01-26T05:11:54.675Z,21.87
2019-01-26T05:14:28.043Z,21.80
2019-01-26T05:17:05.195Z,20.00
2019-01-26T05:19:51.203Z,22.05
2019-01-26T05:22:36.966Z,22.93
2019-01-26T05:25:17.640Z,18.70
2019-01-26T05:27:53.422Z,17.90
2019-01-26T05:30:36.259Z,23.95
2019-01-26T05:33:09.834Z,22.85
2019-01-26T05:35:52.390Z,24.07
2019-01-26T05:38:27.998Z,24.20
2019-01-26T05:41:05.669Z,24.45
2019-01-26T05:43:39.141Z,24.18
2019-01-26T05:46:12.674Z,22.95
2019-01-26T05:48:46.424Z,24.18
2019-01-26T05:51:20.100Z,24.05
2019-01-26T05:53:54.413Z,26.90
2019-01-26T05:56:27.472Z,22.93
2019-01-26T05:59:00.577Z,28.05
2019-01-26T06:01:34.011Z,25.00
2019-01-26T06:04:07.467Z,25.97
2019-01-26T06:06:40.485Z,23.90
2019-01-26T06:11:46.589Z,43.45
2019-01-26T06:14:19.539Z,28.23
2019-01-26T06:19:35.055Z,27.82
2019-01-26T06:22:20.853Z,24.70
2019-01-26T06:25:05.066Z,25.82
2019-01-26T06:27:50.724Z,26.23
2019-01-26T06:30:34.919Z,26.20
2019-01-26T06:33:13.969Z,25.52
2019-01-26T06:35:48.347Z,25.43
2019-01-26T06:38:22.083Z,27.13
2019-01-26T06:40:55.583Z,26.12
2019-01-26T06:43:29.295Z,29.07
2019-01-26T06:46:04.689Z,29.07
2019-01-26T06:48:38.635Z,27.30
2019-01-26T06:51:12.157Z,27.40
2019-01-26T06:53:46.271Z,25.57
2019-01-26T06:56:20.475Z,29.85
2019-01-26T06:58:54.772Z,26.95
2019-01-26T07:01:29.223Z,26.20
2019-01-26T07:04:03.356Z,27.87
2019-01-26T07:06:46.527Z,28.45
2019-01-26T07:11:53.461Z,27.05
2019-01-26T07:14:27.138Z,26.17
2019-01-26T07:17:00.127Z,27.30
2019-01-26T07:22:09.844Z,23.07
2019-01-26T07:24:43.745Z,36.30
2019-01-26T07:27:18.012Z,25.92
2019-01-26T07:29:51.637Z,26.70
2019-01-26T07:32:25.237Z,27.05
2019-01-26T07:34:58.357Z,24.67
2019-01-26T07:37:32.459Z,29.07
2019-01-26T07:40:06.324Z,27.52
2019-01-26T07:42:40.432Z,20.75
2019-01-26T07:45:14.125Z,37.53
2019-01-26T07:47:47.577Z,53.05
2019-01-26T07:50:21.317Z,57.25
2019-01-26T07:52:54.955Z,28.35
2019-01-26T07:55:28.028Z,23.98
2019-01-26T08:00:33.680Z,24.70
2019-01-26T08:03:07.144Z,25.00
2019-01-26T08:05:40.606Z,24.50
2019-01-26T08:08:14.200Z,25.08
2019-01-26T08:10:47.582Z,21.95
2019-01-26T08:13:21.072Z,22.93
2019-01-26T08:15:54.275Z,29.85
2019-01-26T08:21:04.793Z,25.27
2019-01-26T08:23:38.865Z,33.02
2019-01-26T08:26:12.298Z,30.40
2019-01-26T08:28:45.710Z,28.83
2019-01-26T08:31:19.651Z,26.45
2019-01-26T08:33:52.876Z,28.65
2019-01-26T08:36:26.875Z,26.17
2019-01-26T08:39:01.941Z,32.15
2019-01-26T08:41:37.929Z,30.37
2019-01-26T08:44:12.607Z,29.55
2019-01-26T08:46:46.306Z,21.82
2019-01-26T08:49:19.762Z,35.65
2019-01-26T08:51:52.696Z,27.80
2019-01-26T08:54:26.064Z,29.20
2019-01-26T08:56:59.953Z,27.13
2019-01-26T08:59:33.280Z,15.40
2019-01-26T09:02:26.739Z,25.23
2019-01-26T09:05:03.235Z,26.60
2019-01-26T09:07:39.074Z,25.97
2019-01-26T09:10:13.603Z,27.82
2019-01-26T09:12:47.392Z,19.23
2019-01-26T09:15:21.505Z,19.15
2019-01-26T09:17:55.594Z,24.72
2019-01-26T09:20:28.235Z,24.10
2019-01-26T09:23:02.099Z,17.95
2019-01-26T09:25:38.736Z,22.98
2019-01-26T09:28:13.019Z,25.23
2019-01-26T09:30:46.298Z,20.80
2019-01-26T09:33:20.308Z,33.45
2019-01-26T09:35:55.022Z,24.37
2019-01-26T09:38:28.721Z,19.98
2019-01-26T09:41:02.493Z,23.35
2019-01-26T09:43:36.152Z,21.48
2019-01-26T09:46:09.651Z,21.45
2019-01-26T09:48:46.277Z,21.02
2019-01-26T09:51:20.603Z,23.52
2019-01-26T09:53:55.885Z,19.75
2019-01-26T09:56:29.512Z,23.15
2019-01-26T09:59:04.731Z,19.75
2019-01-26T10:01:38.167Z,21.17
2019-01-26T10:04:12.587Z,21.25
2019-01-26T10:06:46.574Z,20.60
2019-01-26T10:09:20.505Z,19.23
2019-01-26T10:11:54.271Z,20.77
2019-01-26T10:14:28.722Z,19.10
2019-01-26T10:17:02.370Z,22.75
2019-01-26T10:19:39.507Z,22.32
2019-01-26T10:22:13.350Z,27.17
2019-01-26T10:24:47.448Z,24.47
2019-01-26T10:27:21.085Z,22.62
2019-01-26T10:29:54.121Z,27.10
2019-01-26T10:35:04.306Z,21.50
2019-01-26T10:37:39.656Z,23.00
2019-01-26T10:40:33.437Z,21.82
2019-01-26T10:43:08.009Z,21.62
2019-01-26T10:45:43.355Z,22.07
2019-01-26T10:48:17.145Z,19.10
2019-01-26T10:50:51.094Z,22.20
2019-01-26T10:53:24.598Z,24.15
2019-01-26T10:55:59.589Z,21.20
2019-01-26T10:58:35.182Z,19.55
2019-01-26T11:01:10.009Z,22.50
2019-01-26T11:03:44.644Z,19.98
2019-01-26T11:06:18.372Z,20.27
2019-01-26T11:08:51.461Z,19.45
2019-01-26T11:14:01.712Z,22.80
2019-01-26T11:16:35.399Z,34.55
2019-01-26T11:19:09.528Z,22.60
2019-01-26T11:21:49.562Z,21.37
2019-01-26T11:24:23.953Z,22.22
2019-01-26T11:26:57.430Z,21.93
2019-01-26T11:29:31.629Z,21.40
2019-01-26T11:32:05.499Z,20.77
2019-01-26T11:34:39.464Z,22.02
2019-01-26T11:37:13.750Z,21.52
2019-01-26T11:39:54.880Z,22.98
2019-01-26T11:42:28.176Z,19.07
2019-01-26T11:45:20.947Z,19.57
2019-01-26T11:47:54.861Z,21.97
2019-01-26T11:50:35.287Z,23.67
2019-01-26T11:53:09.485Z,28.17
2019-01-26T11:55:57.027Z,22.22
2019-01-26T11:58:30.568Z,27.30
2019-01-26T12:01:32.894Z,32.58
2019-01-26T12:04:25.013Z,25.02
2019-01-26T12:07:12.021Z,26.25
2019-01-26T12:09:46.042Z,25.55
2019-01-26T12:12:20.483Z,26.30
2019-01-26T12:14:53.851Z,25.10
2019-01-26T12:17:29.178Z,23.00
2019-01-26T12:20:10.043Z,24.95
2019-01-26T12:22:43.292Z,24.30
2019-01-26T12:25:18.137Z,23.55
2019-01-26T12:27:54.120Z,26.45
2019-01-26T12:30:28.143Z,27.58
2019-01-26T12:33:02.734Z,27.35
2019-01-26T12:35:36.819Z,24.40
2019-01-26T12:38:12.483Z,22.13
2019-01-26T12:40:47.810Z,24.43
2019-01-26T12:43:21.692Z,21.48
2019-01-26T12:45:55.222Z,24.12
2019-01-26T12:48:29.122Z,26.27
2019-01-26T12:51:03.104Z,27.67
2019-01-26T12:53:36.675Z,25.70
2019-01-26T12:56:14.997Z,31.33
2019-01-26T12:58:49.278Z,27.00
2019-01-26T13:01:23.309Z,21.23
2019-01-26T13:03:57.363Z,28.57
2019-01-26T13:06:32.033Z,27.17
2019-01-26T13:09:07.517Z,35.25
2019-01-26T13:11:44.002Z,24.30
2019-01-26T13:14:17.244Z,25.20
2019-01-26T13:17:19.738Z,23.45
2019-01-26T13:19:54.157Z,21.57
2019-01-26T13:22:40.585Z,26.05
2019-01-26T13:25:26.675Z,29.48
2019-01-26T13:28:09.999Z,40.63
2019-01-26T13:30:43.430Z,32.95
2019-01-26T13:33:16.524Z,31.35
2019-01-26T13:38:23.961Z,23.75
2019-01-26T13:40:58.161Z,25.45
2019-01-26T13:43:31.961Z,25.85
2019-01-26T13:46:05.659Z,25.80
2019-01-26T13:48:40.911Z,22.02
2019-01-26T13:51:15.269Z,22.50
2019-01-26T13:53:49.163Z,25.97
2019-01-26T13:56:23.229Z,23.18
2019-01-26T13:58:57.404Z,22.48
2019-01-26T14:01:31.827Z,28.87
2019-01-26T14:04:08.248Z,36.15
2019-01-26T14:06:41.478Z,33.88
2019-01-26T14:09:15.634Z,34.53
2019-01-26T14:11:50.032Z,27.90
2019-01-26T14:14:23.695Z,28.35
2019-01-26T14:16:57.697Z,26.50
2019-01-26T14:19:31.336Z,25.80
2019-01-26T14:22:16.909Z,28.55
2019-01-26T14:25:00.301Z,24.15
2019-01-26T14:27:33.511Z,25.80
2019-01-26T14:30:26.712Z,25.77
2019-01-26T14:33:00.608Z,28.83
2019-01-26T14:35:47.059Z,32.45
2019-01-26T14:38:32.749Z,29.27
2019-01-26T14:41:15.729Z,31.73
2019-01-26T14:43:52.547Z,26.73
2019-01-26T14:46:34.987Z,28.42
2019-01-26T14:49:08.437Z,22.95
2019-01-26T14:51:41.716Z,23.22
2019-01-26T14:54:15.237Z,27.15
2019-01-26T14:56:49.129Z,29.90
2019-01-26T14:59:23.160Z,30.05
2019-01-26T15:01:57.435Z,30.27
2019-01-26T15:04:31.492Z,27.95
2019-01-26T15:07:07.505Z,30.15
2019-01-26T15:09:40.627Z,32.13
2019-01-26T15:14:50.131Z,28.70
2019-01-26T15:17:26.936Z,28.42
2019-01-26T15:20:05.658Z,30.48
2019-01-26T15:22:47.651Z,35.38
2019-01-26T15:25:34.165Z,23.38
2019-01-26T15:28:20.954Z,27.90
2019-01-26T15:30:59.618Z,35.78
2019-01-26T15:33:33.179Z,35.28
2019-01-26T15:36:09.161Z,30.30
2019-01-26T15:38:42.873Z,38.95
2019-01-26T15:41:16.163Z,43.10
2019-01-26T15:43:49.337Z,42.30
2019-01-26T15:46:27.183Z,30.92
2019-01-26T15:49:01.423Z,37.00
2019-01-26T15:51:35.749Z,31.57
2019-01-26T15:54:09.626Z,26.33
2019-01-26T15:56:43.145Z,33.10
2019-01-26T15:59:16.591Z,32.08
2019-01-26T16:01:50.491Z,30.88
2019-01-26T16:04:24.053Z,33.33
2019-01-26T16:06:57.881Z,29.20
2019-01-26T16:09:32.165Z,33.53
2019-01-26T16:12:07.477Z,28.85
2019-01-26T16:14:42.215Z,34.20
2019-01-26T16:17:15.627Z,35.05
2019-01-26T16:19:49.483Z,34.88
2019-01-26T16:22:34.845Z,32.42
2019-01-26T16:25:15.015Z,32.70
2019-01-26T16:27:48.375Z,33.42
2019-01-26T16:30:26.886Z,37.45
2019-01-26T16:33:00.395Z,29.00
2019-01-26T16:35:35.320Z,29.67
2019-01-26T16:38:09.899Z,28.95
2019-01-26T16:40:44.850Z,31.68
2019-01-26T16:43:19.297Z,34.63
2019-01-26T16:45:53.301Z,43.55
2019-01-26T16:48:27.439Z,36.23
2019-01-26T16:51:01.707Z,31.05
2019-01-26T16:53:35.612Z,40.63
2019-01-26T16:56:08.803Z,41.65
2019-01-26T16:58:43.501Z,34.33
2019-01-26T17:01:17.016Z,29.90
2019-01-26T17:03:52.365Z,29.72
2019-01-26T17:06:25.983Z,30.68
2019-01-26T17:09:00.391Z,30.75
2019-01-26T17:11:35.884Z,31.52
2019-01-26T17:14:10.937Z,29.82
2019-01-26T17:16:46.237Z,28.20
2019-01-26T17:19:20.585Z,30.75
2019-01-26T17:21:54.799Z,34.13
2019-01-26T17:24:30.366Z,31.30
2019-01-26T17:27:05.216Z,29.80
2019-01-26T17:29:39.126Z,28.80
2019-01-26T17:32:13.188Z,32.20
2019-01-26T17:34:46.948Z,34.35
2019-01-26T17:37:20.762Z,32.60
2019-01-26T17:39:55.404Z,46.95
2019-01-26T17:42:29.804Z,66.37
2019-01-26T17:45:04.337Z,36.30
2019-01-26T17:47:37.654Z,32.70
2019-01-26T17:50:14.720Z,36.45
2019-01-26T17:52:48.429Z,29.50
2019-01-26T17:55:24.492Z,34.70
2019-01-26T17:57:59.273Z,31.55
2019-01-26T18:00:45.916Z,30.45
2019-01-26T18:03:19.678Z,29.63
2019-01-26T18:05:53.380Z,29.52
2019-01-26T18:08:30.226Z,28.27
2019-01-26T18:11:05.754Z,31.68
2019-01-26T18:13:40.520Z,31.93
2019-01-26T18:16:14.997Z,31.12
2019-01-26T18:18:49.496Z,31.90
2019-01-26T18:21:25.230Z,31.12
2019-01-26T18:24:13.943Z,31.55
2019-01-26T18:26:55.959Z,38.00
2019-01-26T18:29:29.393Z,47.45
2019-01-26T18:32:02.781Z,38.88
2019-01-26T18:34:36.563Z,31.85
2019-01-26T18:37:10.953Z,30.43
2019-01-26T18:39:45.192Z,28.98
2019-01-26T18:42:18.785Z,34.85
2019-01-26T18:44:52.569Z,37.42
2019-01-26T18:48:18.251Z,32.23
2019-01-26T18:50:56.338Z,27.10
2019-01-26T18:53:28.267Z,31.62
2019-01-26T18:56:04.537Z,26.50
2019-01-26T18:58:39.581Z,25.90
2019-01-26T19:01:12.613Z,29.48
2019-01-26T19:04:35.949Z,29.35
2019-01-26T19:07:10.241Z,54.80
2019-01-26T19:09:44.903Z,61.42
2019-01-26T19:12:20.629Z,33.18
2019-01-26T19:14:54.508Z,31.23
2019-01-26T19:17:29.276Z,36.00
2019-01-26T19:20:04.299Z,28.95
2019-01-26T19:22:40.575Z,29.15
2019-01-26T19:25:26.755Z,29.45
2019-01-26T19:28:13.063Z,30.65
2019-01-26T19:30:57.972Z,33.92
2019-01-26T19:33:39.871Z,27.65
2019-01-26T19:36:14.767Z,25.25
2019-01-26T19:38:47.956Z,29.42
2019-01-26T19:41:22.698Z,28.67
2019-01-26T19:43:56.794Z,22.48
2019-01-26T19:46:31.076Z,24.95
2019-01-26T19:49:04.617Z,30.50
2019-01-26T19:51:39.086Z,30.50
2019-01-26T19:54:14.390Z,31.62
2019-01-26T19:56:50.772Z,27.17
2019-01-26T19:59:25.741Z,27.82
2019-01-26T20:02:00.681Z,32.17
2019-01-26T20:04:34.499Z,32.15
2019-01-26T20:07:09.194Z,26.15
2019-01-26T20:09:42.570Z,32.42
2019-01-26T20:12:17.246Z,30.05
2019-01-26T20:14:51.168Z,33.30
2019-01-26T20:17:27.815Z,31.37
2019-01-26T20:20:01.824Z,29.25
2019-01-26T20:22:35.575Z,28.50
2019-01-26T20:25:22.005Z,33.45
2019-01-26T20:28:07.457Z,31.00
2019-01-26T20:30:50.199Z,31.50
2019-01-26T20:33:24.093Z,32.60
2019-01-26T20:35:57.778Z,34.83
2019-01-26T20:38:31.721Z,42.25
2019-01-26T20:41:06.227Z,41.40
2019-01-26T20:43:40.262Z,28.27
2019-01-26T20:46:13.650Z,26.65
2019-01-26T20:48:48.381Z,27.58
2019-01-26T20:51:25.033Z,27.37
2019-01-26T20:53:57.439Z,26.00
2019-01-26T20:56:31.122Z,26.02
2019-01-26T20:59:04.495Z,30.08
2019-01-26T21:01:38.185Z,26.65
2019-01-26T21:04:12.205Z,24.90
2019-01-26T21:06:47.049Z,28.77
2019-01-26T21:09:21.949Z,27.87
2019-01-26T21:11:55.284Z,27.77
2019-01-26T21:14:29.207Z,31.55
2019-01-26T21:17:02.767Z,23.05
2019-01-26T21:19:37.228Z,22.60
2019-01-26T21:22:11.407Z,27.17
2019-01-26T21:24:57.534Z,26.75
2019-01-26T21:27:35.367Z,40.48
2019-01-26T21:30:13.067Z,26.12
2019-01-26T21:32:47.904Z,32.90
2019-01-26T21:35:21.564Z,28.80
2019-01-26T21:37:56.071Z,31.42
2019-01-26T21:40:34.371Z,31.27
2019-01-26T21:43:08.273Z,29.87
2019-01-26T21:45:42.639Z,31.00
2019-01-26T21:48:16.793Z,28.27
2019-01-26T21:50:50.835Z,32.40
2019-01-26T21:53:23.939Z,27.90
2019-01-26T21:55:58.800Z,27.73
2019-01-26T21:58:32.962Z,31.05
2019-01-26T22:01:06.688Z,30.77
2019-01-26T22:03:42.955Z,28.67
2019-01-26T22:06:16.989Z,25.30
2019-01-26T22:08:50.425Z,29.95
2019-01-26T22:11:24.295Z,27.95
2019-01-26T22:13:57.609Z,29.42
2019-01-26T22:16:32.127Z,29.77
2019-01-26T22:19:06.463Z,27.45
2019-01-26T22:21:45.867Z,32.17
2019-01-26T22:24:16.260Z,31.07
2019-01-26T22:26:50.551Z,29.15
2019-01-26T22:29:31.080Z,28.67
2019-01-26T22:32:00.060Z,27.37
2019-01-26T22:34:34.034Z,30.88
2019-01-26T22:37:07.816Z,31.90
2019-01-26T22:39:42.163Z,29.57
2019-01-26T22:42:16.100Z,26.23
2019-01-26T22:44:49.615Z,24.23
2019-01-26T22:47:23.801Z,28.02
2019-01-26T22:49:59.187Z,23.80
2019-01-26T22:52:33.203Z,27.50
2019-01-26T22:55:06.955Z,30.10
2019-01-26T22:57:40.353Z,29.63
2019-01-26T23:00:51.809Z,29.00
2019-01-26T23:03:49.254Z,22.97
2019-01-26T23:07:12.433Z,27.95
2019-01-26T23:10:22.431Z,24.85
2019-01-26T23:13:21.569Z,37.73
2019-01-26T23:16:42.901Z,23.70
2019-01-26T23:19:25.559Z,25.50
2019-01-26T23:22:37.239Z,23.90
2019-01-26T23:25:22.977Z,25.92
2019-01-26T23:28:45.979Z,20.52
2019-01-26T23:31:20.511Z,23.75
2019-01-26T23:33:54.717Z,26.82
2019-01-26T23:36:28.233Z,26.80
2019-01-26T23:39:02.516Z,24.60
2019-01-26T23:41:37.451Z,34.10
2019-01-26T23:44:10.765Z,28.23
2019-01-26T23:46:43.891Z,23.30
2019-01-26T23:51:50.085Z,25.80
2019-01-26T23:54:23.312Z,26.62
2019-01-26T23:56:56.250Z,22.67
2019-01-26T23:59:29.718Z,27.40
